sensor_id;sensor_type;location;lat;lon;timestamp;P1;durP1;ratioP1;P2;durP2;ratioP2
14883;SDS011;7534;50.762;7.000;2023-04-03T00:00:28;2.80;;;2.30;;
14883;SDS011;7534;50.762;7.000;2023-04-03T00:02:55;2.50;;;2.30;;
14883;SDS011;7534;50.762;7.000;2023-04-03T00:05:21;3.20;;;2.17;;
14883;SDS011;7534;50.762;7.000;2023-04-03T00:07:47;2.80;;;2.33;;
14883;SDS011;7534;50.762;7.000;2023-04-03T00:10:14;2.90;;;2.17;;
14883;SDS011;7534;50.762;7.000;2023-04-03T00:12:41;2.30;;;2.10;;
14883;SDS011;7534;50.762;7.000;2023-04-03T00:15:07;4.33;;;2.20;;
14883;SDS011;7534;50.762;7.000;2023-04-03T00:17:34;2.50;;;2.20;;
14883;SDS011;7534;50.762;7.000;2023-04-03T00:19:59;2.80;;;2.27;;
14883;SDS011;7534;50.762;7.000;2023-04-03T00:22:26;6.33;;;2.80;;
14883;SDS011;7534;50.762;7.000;2023-04-03T00:24:53;4.27;;;2.50;;
14883;SDS011;7534;50.762;7.000;2023-04-03T00:27:19;3.30;;;2.40;;
14883;SDS011;7534;50.762;7.000;2023-04-03T00:29:45;3.03;;;2.40;;
14883;SDS011;7534;50.762;7.000;2023-04-03T00:32:11;3.03;;;2.10;;
14883;SDS011;7534;50.762;7.000;2023-04-03T00:34:36;4.07;;;2.57;;
14883;SDS011;7534;50.762;7.000;2023-04-03T00:37:02;3.23;;;2.27;;
14883;SDS011;7534;50.762;7.000;2023-04-03T00:39:28;4.00;;;2.40;;
14883;SDS011;7534;50.762;7.000;2023-04-03T00:41:53;2.93;;;2.03;;
14883;SDS011;7534;50.762;7.000;2023-04-03T00:44:21;2.60;;;2.10;;
14883;SDS011;7534;50.762;7.000;2023-04-03T00:47:07;2.67;;;2.37;;
14883;SDS011;7534;50.762;7.000;2023-04-03T00:49:37;3.80;;;2.20;;
14883;SDS011;7534;50.762;7.000;2023-04-03T00:52:09;2.67;;;2.17;;
14883;SDS011;7534;50.762;7.000;2023-04-03T00:54:41;4.67;;;2.30;;
14883;SDS011;7534;50.762;7.000;2023-04-03T00:57:10;3.30;;;2.40;;
14883;SDS011;7534;50.762;7.000;2023-04-03T00:59:41;2.10;;;1.90;;
14883;SDS011;7534;50.762;7.000;2023-04-03T01:02:13;2.50;;;2.30;;
14883;SDS011;7534;50.762;7.000;2023-04-03T01:04:40;3.00;;;2.10;;
14883;SDS011;7534;50.762;7.000;2023-04-03T01:07:09;2.40;;;2.10;;
14883;SDS011;7534;50.762;7.000;2023-04-03T01:09:41;3.53;;;2.50;;
14883;SDS011;7534;50.762;7.000;2023-04-03T01:12:13;4.77;;;2.57;;
14883;SDS011;7534;50.762;7.000;2023-04-03T01:14:46;2.77;;;2.47;;
14883;SDS011;7534;50.762;7.000;2023-04-03T01:17:29;3.40;;;2.20;;
14883;SDS011;7534;50.762;7.000;2023-04-03T01:25:36;5.27;;;2.50;;
14883;SDS011;7534;50.762;7.000;2023-04-03T01:28:03;4.00;;;2.60;;
14883;SDS011;7534;50.762;7.000;2023-04-03T01:33:52;4.53;;;2.30;;
14883;SDS011;7534;50.762;7.000;2023-04-03T01:36:21;2.97;;;2.67;;
14883;SDS011;7534;50.762;7.000;2023-04-03T01:38:53;5.43;;;2.30;;
14883;SDS011;7534;50.762;7.000;2023-04-03T01:41:21;3.57;;;2.43;;
14883;SDS011;7534;50.762;7.000;2023-04-03T01:43:47;3.27;;;2.50;;
14883;SDS011;7534;50.762;7.000;2023-04-03T01:46:15;5.00;;;2.50;;
14883;SDS011;7534;50.762;7.000;2023-04-03T01:48:42;3.53;;;2.43;;
14883;SDS011;7534;50.762;7.000;2023-04-03T01:51:07;4.20;;;2.70;;
14883;SDS011;7534;50.762;7.000;2023-04-03T01:53:33;4.27;;;2.67;;
14883;SDS011;7534;50.762;7.000;2023-04-03T01:55:59;2.77;;;2.47;;
14883;SDS011;7534;50.762;7.000;2023-04-03T01:58:25;4.30;;;2.40;;
14883;SDS011;7534;50.762;7.000;2023-04-03T02:00:51;3.60;;;2.47;;
14883;SDS011;7534;50.762;7.000;2023-04-03T02:03:17;2.97;;;2.57;;
14883;SDS011;7534;50.762;7.000;2023-04-03T02:05:43;3.73;;;2.40;;
14883;SDS011;7534;50.762;7.000;2023-04-03T02:08:09;3.20;;;2.70;;
14883;SDS011;7534;50.762;7.000;2023-04-03T02:10:35;2.70;;;2.50;;
14883;SDS011;7534;50.762;7.000;2023-04-03T02:13:01;5.10;;;2.70;;
14883;SDS011;7534;50.762;7.000;2023-04-03T02:15:26;3.60;;;2.50;;
14883;SDS011;7534;50.762;7.000;2023-04-03T02:17:52;4.07;;;2.80;;
14883;SDS011;7534;50.762;7.000;2023-04-03T02:20:18;4.10;;;2.97;;
14883;SDS011;7534;50.762;7.000;2023-04-03T02:22:44;3.30;;;2.87;;
14883;SDS011;7534;50.762;7.000;2023-04-03T02:25:10;2.67;;;2.47;;
14883;SDS011;7534;50.762;7.000;2023-04-03T02:27:36;3.27;;;2.50;;
14883;SDS011;7534;50.762;7.000;2023-04-03T02:30:02;2.93;;;2.63;;
14883;SDS011;7534;50.762;7.000;2023-04-03T02:32:30;4.57;;;2.60;;
14883;SDS011;7534;50.762;7.000;2023-04-03T02:34:56;2.50;;;2.30;;
14883;SDS011;7534;50.762;7.000;2023-04-03T02:37:23;2.90;;;2.60;;
14883;SDS011;7534;50.762;7.000;2023-04-03T02:39:48;3.80;;;2.40;;
14883;SDS011;7534;50.762;7.000;2023-04-03T02:42:14;4.37;;;2.87;;
14883;SDS011;7534;50.762;7.000;2023-04-03T02:44:40;3.03;;;2.60;;
14883;SDS011;7534;50.762;7.000;2023-04-03T02:47:05;3.30;;;3.00;;
14883;SDS011;7534;50.762;7.000;2023-04-03T02:49:31;3.80;;;2.80;;
14883;SDS011;7534;50.762;7.000;2023-04-03T02:51:57;3.33;;;3.03;;
14883;SDS011;7534;50.762;7.000;2023-04-03T02:54:22;3.67;;;2.80;;
14883;SDS011;7534;50.762;7.000;2023-04-03T02:56:52;3.47;;;2.93;;
14883;SDS011;7534;50.762;7.000;2023-04-03T02:59:18;3.60;;;2.63;;
14883;SDS011;7534;50.762;7.000;2023-04-03T03:01:43;5.33;;;3.00;;
14883;SDS011;7534;50.762;7.000;2023-04-03T03:04:09;3.13;;;2.83;;
14883;SDS011;7534;50.762;7.000;2023-04-03T03:06:35;4.27;;;2.97;;
14883;SDS011;7534;50.762;7.000;2023-04-03T03:09:00;4.00;;;3.00;;
14883;SDS011;7534;50.762;7.000;2023-04-03T03:11:26;3.03;;;2.70;;
14883;SDS011;7534;50.762;7.000;2023-04-03T03:13:52;3.33;;;2.53;;
14883;SDS011;7534;50.762;7.000;2023-04-03T03:16:17;3.90;;;2.87;;
14883;SDS011;7534;50.762;7.000;2023-04-03T03:18:43;4.13;;;2.93;;
14883;SDS011;7534;50.762;7.000;2023-04-03T03:21:09;3.07;;;2.77;;
14883;SDS011;7534;50.762;7.000;2023-04-03T03:23:35;4.10;;;3.20;;
14883;SDS011;7534;50.762;7.000;2023-04-03T03:26:02;5.33;;;3.10;;
14883;SDS011;7534;50.762;7.000;2023-04-03T03:28:31;3.87;;;3.17;;
14883;SDS011;7534;50.762;7.000;2023-04-03T03:30:58;3.43;;;2.87;;
14883;SDS011;7534;50.762;7.000;2023-04-03T03:33:25;5.10;;;3.23;;
14883;SDS011;7534;50.762;7.000;2023-04-03T03:35:52;3.87;;;3.20;;
14883;SDS011;7534;50.762;7.000;2023-04-03T03:38:19;6.10;;;3.07;;
14883;SDS011;7534;50.762;7.000;2023-04-03T03:40:49;5.33;;;3.23;;
14883;SDS011;7534;50.762;7.000;2023-04-03T03:43:16;5.33;;;3.13;;
14883;SDS011;7534;50.762;7.000;2023-04-03T03:45:43;4.27;;;3.27;;
14883;SDS011;7534;50.762;7.000;2023-04-03T03:48:10;4.90;;;3.40;;
14883;SDS011;7534;50.762;7.000;2023-04-03T03:50:36;3.97;;;3.67;;
14883;SDS011;7534;50.762;7.000;2023-04-03T03:53:02;3.90;;;3.33;;
14883;SDS011;7534;50.762;7.000;2023-04-03T03:55:27;4.00;;;3.40;;
14883;SDS011;7534;50.762;7.000;2023-04-03T03:57:53;4.03;;;3.50;;
14883;SDS011;7534;50.762;7.000;2023-04-03T04:00:19;5.27;;;3.33;;
14883;SDS011;7534;50.762;7.000;2023-04-03T04:02:45;3.90;;;3.47;;
14883;SDS011;7534;50.762;7.000;2023-04-03T04:05:11;3.80;;;3.40;;
14883;SDS011;7534;50.762;7.000;2023-04-03T04:07:37;3.97;;;3.63;;
14883;SDS011;7534;50.762;7.000;2023-04-03T04:10:02;5.43;;;3.80;;
14883;SDS011;7534;50.762;7.000;2023-04-03T04:12:29;3.70;;;3.40;;
14883;SDS011;7534;50.762;7.000;2023-04-03T04:14:55;4.83;;;3.47;;
14883;SDS011;7534;50.762;7.000;2023-04-03T04:17:21;6.17;;;3.90;;
14883;SDS011;7534;50.762;7.000;2023-04-03T04:19:46;5.87;;;3.80;;
14883;SDS011;7534;50.762;7.000;2023-04-03T04:22:12;4.93;;;3.87;;
14883;SDS011;7534;50.762;7.000;2023-04-03T04:24:38;4.07;;;3.47;;
14883;SDS011;7534;50.762;7.000;2023-04-03T04:27:03;6.10;;;4.03;;
14883;SDS011;7534;50.762;7.000;2023-04-03T04:29:29;4.17;;;3.67;;
14883;SDS011;7534;50.762;7.000;2023-04-03T04:32:00;5.33;;;3.47;;
14883;SDS011;7534;50.762;7.000;2023-04-03T04:34:25;4.13;;;3.63;;
14883;SDS011;7534;50.762;7.000;2023-04-03T04:36:51;6.77;;;3.73;;
14883;SDS011;7534;50.762;7.000;2023-04-03T04:39:17;6.27;;;3.70;;
14883;SDS011;7534;50.762;7.000;2023-04-03T04:41:42;5.63;;;4.13;;
14883;SDS011;7534;50.762;7.000;2023-04-03T04:44:08;4.20;;;3.80;;
14883;SDS011;7534;50.762;7.000;2023-04-03T04:46:39;3.83;;;3.53;;
14883;SDS011;7534;50.762;7.000;2023-04-03T04:49:04;5.57;;;3.93;;
14883;SDS011;7534;50.762;7.000;2023-04-03T04:51:30;6.07;;;3.60;;
14883;SDS011;7534;50.762;7.000;2023-04-03T04:53:56;6.30;;;3.87;;
14883;SDS011;7534;50.762;7.000;2023-04-03T04:56:21;4.27;;;3.80;;
14883;SDS011;7534;50.762;7.000;2023-04-03T04:58:47;5.07;;;3.70;;
14883;SDS011;7534;50.762;7.000;2023-04-03T05:01:13;5.47;;;4.17;;
14883;SDS011;7534;50.762;7.000;2023-04-03T05:03:38;6.67;;;4.23;;
14883;SDS011;7534;50.762;7.000;2023-04-03T05:06:04;6.37;;;4.53;;
14883;SDS011;7534;50.762;7.000;2023-04-03T05:08:30;6.40;;;4.70;;
14883;SDS011;7534;50.762;7.000;2023-04-03T05:10:56;9.30;;;4.67;;
14883;SDS011;7534;50.762;7.000;2023-04-03T05:13:22;7.20;;;4.57;;
14883;SDS011;7534;50.762;7.000;2023-04-03T05:15:48;6.87;;;4.20;;
14883;SDS011;7534;50.762;7.000;2023-04-03T05:18:13;8.10;;;4.17;;
14883;SDS011;7534;50.762;7.000;2023-04-03T05:20:39;5.80;;;4.20;;
14883;SDS011;7534;50.762;7.000;2023-04-03T05:23:05;7.07;;;4.13;;
14883;SDS011;7534;50.762;7.000;2023-04-03T05:25:31;6.03;;;4.77;;
14883;SDS011;7534;50.762;7.000;2023-04-03T05:27:57;5.57;;;4.23;;
14883;SDS011;7534;50.762;7.000;2023-04-03T05:30:23;6.20;;;4.67;;
14883;SDS011;7534;50.762;7.000;2023-04-03T05:32:48;5.53;;;4.53;;
14883;SDS011;7534;50.762;7.000;2023-04-03T05:35:14;5.77;;;4.40;;
14883;SDS011;7534;50.762;7.000;2023-04-03T05:37:40;6.90;;;4.20;;
14883;SDS011;7534;50.762;7.000;2023-04-03T05:40:06;5.23;;;4.17;;
14883;SDS011;7534;50.762;7.000;2023-04-03T05:42:33;5.97;;;4.27;;
14883;SDS011;7534;50.762;7.000;2023-04-03T05:44:59;5.23;;;4.50;;
14883;SDS011;7534;50.762;7.000;2023-04-03T05:47:24;6.60;;;4.40;;
14883;SDS011;7534;50.762;7.000;2023-04-03T05:49:50;7.63;;;4.43;;
14883;SDS011;7534;50.762;7.000;2023-04-03T05:52:33;6.13;;;4.50;;
14883;SDS011;7534;50.762;7.000;2023-04-03T05:55:02;5.10;;;4.60;;
14883;SDS011;7534;50.762;7.000;2023-04-03T05:57:28;5.80;;;4.37;;
14883;SDS011;7534;50.762;7.000;2023-04-03T05:59:53;6.10;;;4.47;;
14883;SDS011;7534;50.762;7.000;2023-04-03T06:02:21;7.33;;;3.90;;
14883;SDS011;7534;50.762;7.000;2023-04-03T06:04:48;5.57;;;3.43;;
14883;SDS011;7534;50.762;7.000;2023-04-03T06:07:16;3.90;;;2.80;;
14883;SDS011;7534;50.762;7.000;2023-04-03T06:09:48;3.37;;;2.47;;
14883;SDS011;7534;50.762;7.000;2023-04-03T06:12:16;5.03;;;2.60;;
14883;SDS011;7534;50.762;7.000;2023-04-03T06:14:42;3.47;;;2.40;;
14883;SDS011;7534;50.762;7.000;2023-04-03T06:17:08;2.67;;;2.30;;
14883;SDS011;7534;50.762;7.000;2023-04-03T06:19:34;3.87;;;2.23;;
14883;SDS011;7534;50.762;7.000;2023-04-03T06:22:01;2.97;;;2.07;;
14883;SDS011;7534;50.762;7.000;2023-04-03T06:24:28;3.50;;;2.10;;
14883;SDS011;7534;50.762;7.000;2023-04-03T06:26:56;4.30;;;2.00;;
14883;SDS011;7534;50.762;7.000;2023-04-03T06:29:22;3.77;;;2.10;;
14883;SDS011;7534;50.762;7.000;2023-04-03T06:31:49;4.70;;;2.33;;
14883;SDS011;7534;50.762;7.000;2023-04-03T06:34:16;2.90;;;2.00;;
14883;SDS011;7534;50.762;7.000;2023-04-03T06:36:43;3.67;;;2.07;;
14883;SDS011;7534;50.762;7.000;2023-04-03T06:39:18;2.97;;;2.10;;
14883;SDS011;7534;50.762;7.000;2023-04-03T06:41:47;3.00;;;2.10;;
14883;SDS011;7534;50.762;7.000;2023-04-03T06:44:13;3.45;;;2.15;;
14883;SDS011;7534;50.762;7.000;2023-04-03T06:46:40;2.75;;;2.10;;
14883;SDS011;7534;50.762;7.000;2023-04-03T06:49:08;2.15;;;1.90;;
14883;SDS011;7534;50.762;7.000;2023-04-03T06:51:34;3.17;;;1.80;;
14883;SDS011;7534;50.762;7.000;2023-04-03T06:54:01;2.47;;;1.90;;
14883;SDS011;7534;50.762;7.000;2023-04-03T06:56:29;3.72;;;2.13;;
14883;SDS011;7534;50.762;7.000;2023-04-03T06:58:55;3.67;;;1.85;;
14883;SDS011;7534;50.762;7.000;2023-04-03T07:01:23;2.75;;;1.80;;
14883;SDS011;7534;50.762;7.000;2023-04-03T07:03:52;5.80;;;2.20;;
14883;SDS011;7534;50.762;7.000;2023-04-03T07:06:20;1.95;;;1.75;;
14883;SDS011;7534;50.762;7.000;2023-04-03T07:08:46;3.78;;;1.80;;
14883;SDS011;7534;50.762;7.000;2023-04-03T07:11:14;3.15;;;2.00;;
14883;SDS011;7534;50.762;7.000;2023-04-03T07:13:40;3.30;;;2.25;;
14883;SDS011;7534;50.762;7.000;2023-04-03T07:16:11;1.88;;;1.70;;
14883;SDS011;7534;50.762;7.000;2023-04-03T07:18:37;2.70;;;1.77;;
14883;SDS011;7534;50.762;7.000;2023-04-03T07:21:03;2.63;;;1.70;;
14883;SDS011;7534;50.762;7.000;2023-04-03T07:23:30;2.90;;;1.85;;
14883;SDS011;7534;50.762;7.000;2023-04-03T07:25:55;2.88;;;1.70;;
14883;SDS011;7534;50.762;7.000;2023-04-03T07:28:21;2.88;;;1.90;;
14883;SDS011;7534;50.762;7.000;2023-04-03T07:30:49;3.85;;;1.77;;
14883;SDS011;7534;50.762;7.000;2023-04-03T07:33:19;4.18;;;1.85;;
14883;SDS011;7534;50.762;7.000;2023-04-03T07:35:48;15.15;;;4.38;;
14883;SDS011;7534;50.762;7.000;2023-04-03T07:38:14;10.40;;;3.63;;
14883;SDS011;7534;50.762;7.000;2023-04-03T07:40:44;5.15;;;2.20;;
14883;SDS011;7534;50.762;7.000;2023-04-03T07:43:13;2.88;;;1.63;;
14883;SDS011;7534;50.762;7.000;2023-04-03T07:45:40;6.25;;;2.63;;
14883;SDS011;7534;50.762;7.000;2023-04-03T07:48:13;5.97;;;2.00;;
14883;SDS011;7534;50.762;7.000;2023-04-03T07:50:45;2.97;;;1.60;;
14883;SDS011;7534;50.762;7.000;2023-04-03T07:53:12;3.67;;;2.30;;
14883;SDS011;7534;50.762;7.000;2023-04-03T07:55:39;5.80;;;2.30;;
14883;SDS011;7534;50.762;7.000;2023-04-03T07:58:11;3.53;;;2.08;;
14883;SDS011;7534;50.762;7.000;2023-04-03T08:00:43;3.20;;;2.20;;
14883;SDS011;7534;50.762;7.000;2023-04-03T08:03:10;3.55;;;2.10;;
14883;SDS011;7534;50.762;7.000;2023-04-03T08:05:38;3.95;;;1.95;;
14883;SDS011;7534;50.762;7.000;2023-04-03T08:08:06;2.90;;;1.80;;
14883;SDS011;7534;50.762;7.000;2023-04-03T08:10:34;4.20;;;1.80;;
14883;SDS011;7534;50.762;7.000;2023-04-03T08:13:00;3.03;;;1.65;;
14883;SDS011;7534;50.762;7.000;2023-04-03T08:15:27;3.15;;;1.80;;
14883;SDS011;7534;50.762;7.000;2023-04-03T08:17:54;2.95;;;1.60;;
14883;SDS011;7534;50.762;7.000;2023-04-03T08:20:20;3.72;;;1.80;;
14883;SDS011;7534;50.762;7.000;2023-04-03T08:22:46;4.72;;;1.65;;
14883;SDS011;7534;50.762;7.000;2023-04-03T08:25:12;2.58;;;1.77;;
14883;SDS011;7534;50.762;7.000;2023-04-03T08:27:38;3.65;;;1.92;;
14883;SDS011;7534;50.762;7.000;2023-04-03T08:30:04;2.70;;;1.80;;
14883;SDS011;7534;50.762;7.000;2023-04-03T08:32:32;3.22;;;1.80;;
14883;SDS011;7534;50.762;7.000;2023-04-03T08:35:00;2.30;;;1.67;;
14883;SDS011;7534;50.762;7.000;2023-04-03T08:37:28;3.08;;;1.90;;
14883;SDS011;7534;50.762;7.000;2023-04-03T08:39:53;4.10;;;1.60;;
14883;SDS011;7534;50.762;7.000;2023-04-03T08:42:27;2.30;;;1.60;;
14883;SDS011;7534;50.762;7.000;2023-04-03T08:46:01;2.60;;;1.60;;
14883;SDS011;7534;50.762;7.000;2023-04-03T08:51:04;4.23;;;2.23;;
14883;SDS011;7534;50.762;7.000;2023-04-03T08:53:41;2.55;;;1.70;;
14883;SDS011;7534;50.762;7.000;2023-04-03T08:56:24;2.60;;;1.70;;
14883;SDS011;7534;50.762;7.000;2023-04-03T08:58:55;5.18;;;1.60;;
14883;SDS011;7534;50.762;7.000;2023-04-03T09:01:40;4.05;;;1.52;;
14883;SDS011;7534;50.762;7.000;2023-04-03T09:04:12;2.80;;;1.60;;
14883;SDS011;7534;50.762;7.000;2023-04-03T09:06:42;3.65;;;1.45;;
14883;SDS011;7534;50.762;7.000;2023-04-03T09:09:15;2.33;;;1.50;;
14883;SDS011;7534;50.762;7.000;2023-04-03T09:17:58;3.03;;;1.75;;
14883;SDS011;7534;50.762;7.000;2023-04-03T09:23:32;3.50;;;1.70;;
14883;SDS011;7534;50.762;7.000;2023-04-03T09:26:21;2.35;;;1.55;;
14883;SDS011;7534;50.762;7.000;2023-04-03T09:28:55;2.40;;;1.50;;
14883;SDS011;7534;50.762;7.000;2023-04-03T09:31:29;3.97;;;1.53;;
14883;SDS011;7534;50.762;7.000;2023-04-03T09:34:03;2.30;;;1.57;;
14883;SDS011;7534;50.762;7.000;2023-04-03T09:36:41;3.87;;;1.50;;
14883;SDS011;7534;50.762;7.000;2023-04-03T09:39:12;3.13;;;1.40;;
14883;SDS011;7534;50.762;7.000;2023-04-03T09:42:00;4.87;;;1.93;;
14883;SDS011;7534;50.762;7.000;2023-04-03T09:44:31;5.60;;;2.60;;
14883;SDS011;7534;50.762;7.000;2023-04-03T09:50:37;2.57;;;1.30;;
14883;SDS011;7534;50.762;7.000;2023-04-03T09:52:38;3.70;;;1.40;;
14883;SDS011;7534;50.762;7.000;2023-04-03T09:55:08;2.67;;;1.60;;
14883;SDS011;7534;50.762;7.000;2023-04-03T09:57:55;3.80;;;1.53;;
14883;SDS011;7534;50.762;7.000;2023-04-03T10:00:38;3.77;;;1.40;;
14883;SDS011;7534;50.762;7.000;2023-04-03T10:03:06;2.33;;;1.40;;
14883;SDS011;7534;50.762;7.000;2023-04-03T10:05:54;2.47;;;1.33;;
14883;SDS011;7534;50.762;7.000;2023-04-03T10:11:15;1.70;;;1.30;;
14883;SDS011;7534;50.762;7.000;2023-04-03T10:13:50;3.30;;;1.43;;
14883;SDS011;7534;50.762;7.000;2023-04-03T10:16:23;2.73;;;1.60;;
14883;SDS011;7534;50.762;7.000;2023-04-03T10:19:32;3.23;;;1.50;;
14883;SDS011;7534;50.762;7.000;2023-04-03T10:25:04;3.33;;;1.37;;
14883;SDS011;7534;50.762;7.000;2023-04-03T10:28:00;1.90;;;1.30;;
14883;SDS011;7534;50.762;7.000;2023-04-03T10:30:42;2.70;;;1.50;;
14883;SDS011;7534;50.762;7.000;2023-04-03T10:36:36;2.47;;;1.27;;
14883;SDS011;7534;50.762;7.000;2023-04-03T10:48:02;2.27;;;1.40;;
14883;SDS011;7534;50.762;7.000;2023-04-03T10:50:47;1.67;;;1.17;;
14883;SDS011;7534;50.762;7.000;2023-04-03T10:59:16;2.40;;;1.40;;
14883;SDS011;7534;50.762;7.000;2023-04-03T11:08:05;2.03;;;1.20;;
14883;SDS011;7534;50.762;7.000;2023-04-03T11:10:55;2.67;;;1.13;;
14883;SDS011;7534;50.762;7.000;2023-04-03T11:13:35;2.47;;;1.27;;
14883;SDS011;7534;50.762;7.000;2023-04-03T11:16:22;2.57;;;1.37;;
14883;SDS011;7534;50.762;7.000;2023-04-03T11:19:16;2.33;;;1.20;;
14883;SDS011;7534;50.762;7.000;2023-04-03T11:21:51;2.17;;;1.50;;
14883;SDS011;7534;50.762;7.000;2023-04-03T11:24:26;1.60;;;1.20;;
14883;SDS011;7534;50.762;7.000;2023-04-03T11:26:56;2.63;;;1.40;;
14883;SDS011;7534;50.762;7.000;2023-04-03T11:29:28;2.90;;;1.40;;
14883;SDS011;7534;50.762;7.000;2023-04-03T11:32:13;1.90;;;1.20;;
14883;SDS011;7534;50.762;7.000;2023-04-03T11:35:06;1.33;;;1.20;;
14883;SDS011;7534;50.762;7.000;2023-04-03T11:37:35;2.27;;;1.10;;
14883;SDS011;7534;50.762;7.000;2023-04-03T11:40:19;2.17;;;1.30;;
14883;SDS011;7534;50.762;7.000;2023-04-03T11:47:59;1.70;;;1.10;;
14883;SDS011;7534;50.762;7.000;2023-04-03T11:50:56;1.60;;;1.30;;
14883;SDS011;7534;50.762;7.000;2023-04-03T11:53:54;1.60;;;1.20;;
14883;SDS011;7534;50.762;7.000;2023-04-03T11:56:58;1.33;;;1.07;;
14883;SDS011;7534;50.762;7.000;2023-04-03T11:59:24;1.87;;;1.20;;
14883;SDS011;7534;50.762;7.000;2023-04-03T12:01:53;1.37;;;1.20;;
14883;SDS011;7534;50.762;7.000;2023-04-03T12:04:27;1.40;;;1.10;;
14883;SDS011;7534;50.762;7.000;2023-04-03T12:07:11;3.00;;;1.23;;
14883;SDS011;7534;50.762;7.000;2023-04-03T12:12:24;1.30;;;1.10;;
14883;SDS011;7534;50.762;7.000;2023-04-03T12:21:07;2.60;;;1.30;;
14883;SDS011;7534;50.762;7.000;2023-04-03T12:26:48;2.53;;;1.30;;
14883;SDS011;7534;50.762;7.000;2023-04-03T12:35:10;1.13;;;1.03;;
14883;SDS011;7534;50.762;7.000;2023-04-03T12:41:21;1.73;;;1.40;;
14883;SDS011;7534;50.762;7.000;2023-04-03T12:47:02;1.43;;;1.20;;
14883;SDS011;7534;50.762;7.000;2023-04-03T12:49:49;1.53;;;1.20;;
14883;SDS011;7534;50.762;7.000;2023-04-03T12:52:21;2.63;;;1.33;;
14883;SDS011;7534;50.762;7.000;2023-04-03T12:55:00;2.33;;;1.20;;
14883;SDS011;7534;50.762;7.000;2023-04-03T12:57:29;5.27;;;1.23;;
14883;SDS011;7534;50.762;7.000;2023-04-03T12:59:57;1.60;;;1.17;;
14883;SDS011;7534;50.762;7.000;2023-04-03T13:02:29;3.80;;;1.63;;
14883;SDS011;7534;50.762;7.000;2023-04-03T13:05:05;2.60;;;1.20;;
14883;SDS011;7534;50.762;7.000;2023-04-03T13:07:35;2.93;;;1.40;;
14883;SDS011;7534;50.762;7.000;2023-04-03T13:15:22;2.33;;;1.20;;
14883;SDS011;7534;50.762;7.000;2023-04-03T13:17:52;2.03;;;1.27;;
14883;SDS011;7534;50.762;7.000;2023-04-03T13:20:27;1.83;;;1.20;;
14883;SDS011;7534;50.762;7.000;2023-04-03T13:23:05;1.63;;;1.10;;
14883;SDS011;7534;50.762;7.000;2023-04-03T13:25:40;1.80;;;1.00;;
14883;SDS011;7534;50.762;7.000;2023-04-03T13:28:10;2.10;;;1.10;;
14883;SDS011;7534;50.762;7.000;2023-04-03T13:30:58;1.63;;;1.13;;
14883;SDS011;7534;50.762;7.000;2023-04-03T13:33:38;1.40;;;1.20;;
14883;SDS011;7534;50.762;7.000;2023-04-03T13:39:05;1.73;;;1.27;;
14883;SDS011;7534;50.762;7.000;2023-04-03T13:41:55;2.63;;;1.13;;
14883;SDS011;7534;50.762;7.000;2023-04-03T13:44:39;2.28;;;1.50;;
14883;SDS011;7534;50.762;7.000;2023-04-03T13:47:17;1.30;;;1.20;;
14883;SDS011;7534;50.762;7.000;2023-04-03T13:50:00;2.10;;;1.50;;
14883;SDS011;7534;50.762;7.000;2023-04-03T13:53:01;2.60;;;1.20;;
14883;SDS011;7534;50.762;7.000;2023-04-03T13:55:52;2.60;;;1.40;;
14883;SDS011;7534;50.762;7.000;2023-04-03T13:58:31;2.30;;;1.30;;
14883;SDS011;7534;50.762;7.000;2023-04-03T14:01:14;4.17;;;1.40;;
14883;SDS011;7534;50.762;7.000;2023-04-03T14:06:26;1.83;;;1.40;;
14883;SDS011;7534;50.762;7.000;2023-04-03T14:08:52;2.20;;;1.50;;
14883;SDS011;7534;50.762;7.000;2023-04-03T14:11:28;3.03;;;1.63;;
14883;SDS011;7534;50.762;7.000;2023-04-03T14:13:57;2.23;;;1.23;;
14883;SDS011;7534;50.762;7.000;2023-04-03T14:16:31;1.93;;;1.23;;
14883;SDS011;7534;50.762;7.000;2023-04-03T14:19:02;1.83;;;1.30;;
14883;SDS011;7534;50.762;7.000;2023-04-03T14:21:28;1.80;;;1.30;;
14883;SDS011;7534;50.762;7.000;2023-04-03T14:23:54;2.07;;;1.30;;
14883;SDS011;7534;50.762;7.000;2023-04-03T14:26:21;2.10;;;1.37;;
14883;SDS011;7534;50.762;7.000;2023-04-03T14:28:52;2.63;;;1.40;;
14883;SDS011;7534;50.762;7.000;2023-04-03T14:31:22;2.67;;;1.40;;
14883;SDS011;7534;50.762;7.000;2023-04-03T14:33:49;1.97;;;1.30;;
14883;SDS011;7534;50.762;7.000;2023-04-03T14:36:16;2.30;;;1.50;;
14883;SDS011;7534;50.762;7.000;2023-04-03T14:38:49;2.58;;;1.60;;
14883;SDS011;7534;50.762;7.000;2023-04-03T14:41:16;2.50;;;1.60;;
14883;SDS011;7534;50.762;7.000;2023-04-03T14:43:46;2.53;;;1.43;;
14883;SDS011;7534;50.762;7.000;2023-04-03T14:48:49;1.60;;;1.50;;
14883;SDS011;7534;50.762;7.000;2023-04-03T14:51:15;2.57;;;1.50;;
14883;SDS011;7534;50.762;7.000;2023-04-03T14:53:41;2.83;;;1.60;;
14883;SDS011;7534;50.762;7.000;2023-04-03T14:56:14;1.50;;;1.20;;
14883;SDS011;7534;50.762;7.000;2023-04-03T14:58:47;3.60;;;1.60;;
14883;SDS011;7534;50.762;7.000;2023-04-03T15:01:17;2.50;;;1.50;;
14883;SDS011;7534;50.762;7.000;2023-04-03T15:03:43;2.40;;;1.50;;
14883;SDS011;7534;50.762;7.000;2023-04-03T15:06:13;2.00;;;1.30;;
14883;SDS011;7534;50.762;7.000;2023-04-03T15:08:40;2.07;;;1.50;;
14883;SDS011;7534;50.762;7.000;2023-04-03T15:11:09;3.20;;;1.60;;
14883;SDS011;7534;50.762;7.000;2023-04-03T15:13:35;1.40;;;1.30;;
14883;SDS011;7534;50.762;7.000;2023-04-03T15:16:02;3.23;;;1.43;;
14883;SDS011;7534;50.762;7.000;2023-04-03T15:18:31;2.30;;;1.50;;
14883;SDS011;7534;50.762;7.000;2023-04-03T15:21:02;2.70;;;1.60;;
14883;SDS011;7534;50.762;7.000;2023-04-03T15:23:29;3.00;;;1.37;;
14883;SDS011;7534;50.762;7.000;2023-04-03T15:25:55;1.90;;;1.30;;
14883;SDS011;7534;50.762;7.000;2023-04-03T15:31:05;1.80;;;1.43;;
14883;SDS011;7534;50.762;7.000;2023-04-03T15:33:32;2.07;;;1.50;;
14883;SDS011;7534;50.762;7.000;2023-04-03T15:35:59;2.13;;;1.40;;
14883;SDS011;7534;50.762;7.000;2023-04-03T15:38:26;1.60;;;1.17;;
14883;SDS011;7534;50.762;7.000;2023-04-03T15:40:53;1.90;;;1.33;;
14883;SDS011;7534;50.762;7.000;2023-04-03T15:43:20;2.07;;;1.40;;
14883;SDS011;7534;50.762;7.000;2023-04-03T15:45:46;1.57;;;1.40;;
14883;SDS011;7534;50.762;7.000;2023-04-03T15:48:13;2.30;;;1.43;;
14883;SDS011;7534;50.762;7.000;2023-04-03T15:50:39;2.10;;;1.30;;
14883;SDS011;7534;50.762;7.000;2023-04-03T15:53:05;2.27;;;1.60;;
14883;SDS011;7534;50.762;7.000;2023-04-03T15:55:32;2.63;;;1.57;;
14883;SDS011;7534;50.762;7.000;2023-04-03T15:58:01;2.53;;;1.40;;
14883;SDS011;7534;50.762;7.000;2023-04-03T16:00:28;2.90;;;1.50;;
14883;SDS011;7534;50.762;7.000;2023-04-03T16:02:56;1.63;;;1.30;;
14883;SDS011;7534;50.762;7.000;2023-04-03T16:05:29;2.50;;;1.60;;
14883;SDS011;7534;50.762;7.000;2023-04-03T16:07:56;2.03;;;1.60;;
14883;SDS011;7534;50.762;7.000;2023-04-03T16:10:25;1.93;;;1.40;;
14883;SDS011;7534;50.762;7.000;2023-04-03T16:12:51;2.13;;;1.67;;
14883;SDS011;7534;50.762;7.000;2023-04-03T16:15:17;2.07;;;1.40;;
14883;SDS011;7534;50.762;7.000;2023-04-03T16:17:43;1.80;;;1.30;;
14883;SDS011;7534;50.762;7.000;2023-04-03T16:20:10;2.10;;;1.30;;
14883;SDS011;7534;50.762;7.000;2023-04-03T16:22:38;2.10;;;1.60;;
14883;SDS011;7534;50.762;7.000;2023-04-03T16:25:05;2.23;;;1.50;;
14883;SDS011;7534;50.762;7.000;2023-04-03T16:27:33;2.37;;;1.40;;
14883;SDS011;7534;50.762;7.000;2023-04-03T16:29:58;4.23;;;1.50;;
14883;SDS011;7534;50.762;7.000;2023-04-03T16:32:26;1.93;;;1.70;;
14883;SDS011;7534;50.762;7.000;2023-04-03T16:34:55;3.10;;;1.40;;
14883;SDS011;7534;50.762;7.000;2023-04-03T16:37:22;1.77;;;1.30;;
14883;SDS011;7534;50.762;7.000;2023-04-03T16:39:48;1.60;;;1.30;;
14883;SDS011;7534;50.762;7.000;2023-04-03T16:42:13;1.57;;;1.40;;
14883;SDS011;7534;50.762;7.000;2023-04-03T16:44:40;1.77;;;1.13;;
14883;SDS011;7534;50.762;7.000;2023-04-03T16:47:06;2.77;;;1.30;;
14883;SDS011;7534;50.762;7.000;2023-04-03T16:49:32;2.30;;;1.57;;
14883;SDS011;7534;50.762;7.000;2023-04-03T16:52:09;1.57;;;1.20;;
14883;SDS011;7534;50.762;7.000;2023-04-03T16:54:35;1.23;;;1.10;;
14883;SDS011;7534;50.762;7.000;2023-04-03T16:57:01;1.40;;;1.07;;